Flight Track Log - Related Links

Times and Time Zones

All times are in EDT time to prevent confusion due to time zone crossing. See the KFS724 flight status page for this flight to view local times or setup timezone preferences in your user account.

Time Position Orientation Groundspeed Altitude Reporting Facility
EDT Latitude Longitude Course Direction KTS MPH feet Rate Location/Type
Thu 10:27:29 PM 42.2250 -83.5481 229° Southwest 142 163 1,600  Level FAA TRACON SMA TRACON (SMA)
Thu 10:27:48 PM 42.2164 -83.5614 229° Southwest 143 165 2,200 1,500 Climbing FAA TRACON SMA TRACON (SMA)
Thu 10:28:09 PM 42.2089 -83.5786 240° Southwest 180 207 2,600 1,171 Climbing FAA TRACON SMA TRACON (SMA)
Thu 10:28:29 PM 42.2125 -83.6047 281° West 191 220 3,000 1,077 Climbing FAA TRACON SMA TRACON (SMA)
Thu 10:28:48 PM 42.2194 -83.6247 295° West 189 217 3,300 900 Climbing FAA TRACON SMA TRACON (SMA)
Thu 10:29:09 PM 42.2258 -83.6433 295° West 185 213 3,600 900 Climbing FAA TRACON SMA TRACON (SMA)
Thu 10:29:28 PM 42.2372 -83.6703 300° West 210 242 3,900 1,050 Climbing FAA TRACON SMA TRACON (SMA)
Thu 10:29:49 PM 42.2458 -83.6950 295° West 223 257 4,300 1,317 Climbing FAA TRACON SMA TRACON (SMA)
Thu 10:30:09 PM 42.2553 -83.7203 297° West 241 277 4,800 2,308 Climbing FAA TRACON SMA TRACON (SMA)
Thu 10:30:28 PM 42.2678 -83.7533 297° West 251 289 5,800 2,850 Climbing FAA TRACON SMA TRACON (SMA)
Thu 10:30:49 PM 42.2781 -83.7792 298° West 252 290 6,700 2,400 Climbing FAA TRACON SMA TRACON (SMA)
Thu 10:31:08 PM 42.2872 -83.8044 296° West 244 281 7,400 2,400 Climbing FAA TRACON SMA TRACON (SMA)
Thu 10:31:29 PM 42.2986 -83.8364 296° West 246 283 8,300 1,902 Climbing FAA TRACON SMA TRACON (SMA)
Thu 10:31:49 PM 42.3086 -83.8628 297° West 252 290 8,700 1,500 Climbing FAA TRACON SMA TRACON (SMA)
Thu 10:32:09 PM 42.3211 -83.8911 301° West 278 320 9,300 2,100 Climbing FAA TRACON SMA TRACON (SMA)
Thu 10:32:29 PM 42.3350 -83.9289 296° West 291 335 10,100 1,846 Climbing FAA TRACON SMA TRACON (SMA)
Thu 10:32:48 PM 42.3472 -83.9600 298° West 304 350 10,500 1,200 Climbing FAA TRACON SMA TRACON (SMA)
Thu 10:33:09 PM 42.3594 -83.9925 297° West 312 359 10,900 1,500 Climbing FAA TRACON SMA TRACON (SMA)
Thu 10:33:28 PM 42.3744 -84.0372 294° West 338 389 11,500 1,800 Climbing FAA TRACON SMA TRACON (SMA)
Thu 10:33:49 PM 42.3869 -84.0736 295° West 348 400 12,100 1,902 Climbing FAA TRACON SMA TRACON (SMA)
Thu 10:34:09 PM 42.4003 -84.1106 296° West 353 406 12,800 2,308 Climbing FAA TRACON SMA TRACON (SMA)
Thu 10:34:28 PM 42.4131 -84.1478 295° West 354 407 13,600 2,850 Climbing FAA TRACON SMA TRACON (SMA)
Thu 10:34:49 PM 42.4278 -84.1942 293° West 344 396 14,700 2,850 Climbing FAA TRACON SMA TRACON (SMA)
Thu 10:35:08 PM 42.4314 -84.2322 277° West 322 371 15,500 2,850 Climbing FAA TRACON SMA TRACON (SMA)
Thu 10:35:29 PM 42.4328 -84.2786 272° West 318 366 16,600 2,634 Climbing FAA TRACON SMA TRACON (SMA)
Thu 10:35:49 PM 42.4350 -84.3150 275° West 317 365 17,300 1,385 Climbing FAA TRACON SMA TRACON (SMA)
Thu 10:36:08 PM 42.4375 -84.3522 275° West 321 369 17,500 750 Climbing FAA TRACON SMA TRACON (SMA)
Thu 10:36:29 PM 42.4428 -84.4019 278° West 347 399 17,800 1,200 Climbing FAA TRACON SMA TRACON (SMA)
Thu 10:36:48 PM 42.4442 -84.4422 273° West 349 402 18,300 1,200 Climbing FAA TRACON SMA TRACON (SMA)
Thu 10:37:09 PM 42.4442 -84.4831 270° West 351 404 18,600 585 Climbing FAA TRACON SMA TRACON (SMA)
Thu 10:37:29 PM 42.4442 -84.5033 270° West 353 406 18,700 1,171 Climbing FAA TRACON SMA TRACON (SMA)
Thu 10:37:50 PM 42.4433 -84.5650 269° West 344 396 19,400 1,188 Climbing Cleveland Center
Thu 10:39:10 PM 42.4444 -84.7464 271° West 371 427 20,700 1,064 Climbing Chicago Center
Thu 10:40:11 PM 42.4481 -84.8911 272° West 382 440 21,900 1,268 Climbing Chicago Center
Thu 10:41:13 PM 42.4511 -85.0678 271° West 390 449 23,300 1,317 Climbing Chicago Center
Thu 10:42:14 PM 42.4536 -85.2167 271° West 394 453 24,600 976 Climbing Chicago Center
Thu 10:43:16 PM 42.4578 -85.3661 272° West 397 457 25,300 732 Climbing Chicago Center
Thu 10:44:17 PM 42.4597 -85.5194 271° West 403 464 26,100 732 Climbing Chicago Center
Thu 10:45:19 PM 42.4625 -85.6775 271° West 414 476 26,800 634 Climbing Chicago Center
Thu 10:46:20 PM 42.4650 -85.8400 271° West 426 490 27,400 639 Climbing Chicago Center
Thu 10:47:21 PM 42.4669 -86.0047 271° West 434 499 28,100 829 Climbing Chicago Center
Thu 10:48:23 PM 42.4450 -86.1608 259° West 425 489 29,100 1,171 Climbing Chicago Center
Thu 10:49:24 PM 42.3928 -86.2903 241° Southwest 396 456 30,500 1,073 Climbing Chicago Center
Thu 10:50:26 PM 42.3414 -86.4192 242° Southwest 390 449 31,300 732 Climbing Chicago Center
Thu 10:51:27 PM 42.2886 -86.5517 242° Southwest 383 441 32,000 634 Climbing Chicago Center
Thu 10:52:29 PM 42.2289 -86.6975 241° Southwest 383 441 32,600 732 Climbing Chicago Center
Thu 10:53:30 PM 42.1803 -86.8233 242° Southwest 381 438 33,500 683 Climbing Chicago Center
Thu 10:54:32 PM 42.1303 -86.9450 241° Southwest 376 433 34,000 244 Climbing Chicago Center
Thu 10:55:33 PM 42.0808 -87.0631 241° Southwest 369 425 34,000  Level Chicago Center
Thu 10:56:34 PM 42.0319 -87.1797 241° Southwest 361 415 34,000  Level Chicago Center
Thu 10:57:36 PM 41.9836 -87.2961 241° Southwest 358 412 34,000  Level Chicago Center
Thu 10:58:37 PM 41.9342 -87.4142 241° Southwest 364 419 34,000  Level Chicago Center
Thu 10:59:38 PM 41.8728 -87.5592 240° Southwest 374 430 34,000  Level Chicago Center
Thu 11:00:40 PM 41.8206 -87.6811 240° Southwest 378 435 34,000  Level Chicago Center
Thu 11:01:41 PM 41.7678 -87.8039 240° Southwest 383 441 34,000  Level Chicago Center
Thu 11:02:43 PM 41.7150 -87.9275 240° Southwest 386 444 34,000  Level Chicago Center
Thu 11:03:44 PM 41.6631 -88.0500 240° Southwest 386 444 34,000  Level Chicago Center
Thu 11:04:45 PM 41.6114 -88.1717 240° Southwest 383 441 34,000  Level Chicago Center
Thu 11:05:47 PM 41.5489 -88.3197 241° Southwest 388 447 34,000  Level Chicago Center
Thu 11:06:48 PM 41.5478 -88.4758 270° West 427 491 34,000  Level Chicago Center
Thu 11:07:50 PM 41.5492 -88.6325 271° West 427 491 34,000  Level Chicago Center
Thu 11:08:51 PM 41.5486 -88.7883 270° West 423 487 34,000  Level Chicago Center
Thu 11:09:52 PM 41.5500 -88.9433 271° West 422 486 34,000  Level Chicago Center
Thu 11:10:54 PM 41.5500 -89.0983 270° West 419 482 34,000  Level Chicago Center
Thu 11:11:55 PM 41.5500 -89.2833 270° West 417 480 34,000  Level Chicago Center
Thu 11:12:57 PM 41.5508 -89.4372 270° West 417 480 34,000  Level Chicago Center
Thu 11:13:58 PM 41.5492 -89.5678 269° West 417 480 34,000  Level Chicago Center
Thu 11:14:59 PM 41.5489 -89.7528 270° West 417 480 34,000  Level Chicago Center
Thu 11:16:01 PM 41.5469 -89.9081 269° West 420 483 34,000  Level Chicago Center
Thu 11:17:02 PM 41.5467 -90.0614 270° West 416 479 34,000  Level Chicago Center
Thu 11:18:03 PM 41.5453 -90.2153 269° West 416 479 34,000  Level Chicago Center
Thu 11:19:05 PM 41.5419 -90.3733 268° West 425 489 34,000  Level Chicago Center
Thu 11:20:06 PM 41.5400 -90.5256 269° West 416 479 34,000  Level Chicago Center
Thu 11:21:07 PM 41.5297 -90.6833 265° West 400 460 34,000  Level Chicago Center
Thu 11:22:09 PM 41.4900 -90.8042 246° West 381 438 34,000  Level Chicago Center
Thu 11:23:10 PM 41.4389 -90.9600 246° West 384 442 34,000  Level Chicago Center
Thu 11:24:11 PM 41.3964 -91.0889 246° West 382 440 34,000  Level Chicago Center
Thu 11:25:13 PM 41.3533 -91.2169 246° West 380 437 34,000  Level Chicago Center
Thu 11:26:14 PM 41.3075 -91.3536 246° West 385 443 34,000  Level Chicago Center
Thu 11:27:15 PM 41.2636 -91.4833 246° West 387 445 34,000  Level Chicago Center
Thu 11:28:16 PM 41.2214 -91.6086 246° West 390 449 34,000  Level Chicago Center
Thu 11:29:18 PM 41.1758 -91.7414 246° West 394 453 34,000  Level Chicago Center
Thu 11:30:19 PM 41.1322 -91.8722 246° West 392 451 34,000  Level Chicago Center
Thu 11:31:20 PM 41.0875 -92.0017 245° Southwest 391 450 34,000  Level Chicago Center
Thu 11:32:21 PM 41.0331 -92.1564 245° Southwest 391 450 34,000  Level Chicago Center
Thu 11:33:22 PM 40.9889 -92.2850 246° West 390 449 34,000  Level Chicago Center
Thu 11:34:24 PM 40.9425 -92.4147 245° Southwest 393 452 34,000  Level Chicago Center
Thu 11:35:25 PM 40.8975 -92.5425 245° Southwest 390 449 34,000  Level Chicago Center
Thu 11:36:26 PM 40.8522 -92.6731 245° Southwest 393 452 34,000  Level Chicago Center
Thu 11:37:27 PM 40.8056 -92.8025 245° Southwest 395 455 34,000  Level Chicago Center
Thu 11:38:40 PM 40.7422 -92.9803 245° Southwest 390 449 34,000  Level Chicago Center
Thu 11:39:42 PM 40.6958 -93.1119 245° Southwest 398 458 34,000  Level Chicago Center
Thu 11:40:43 PM 40.6481 -93.2439 245° Southwest 404 465 34,000  Level Chicago Center
Thu 11:41:44 PM 40.5992 -93.3767 244° Southwest 407 468 34,000  Level Chicago Center
Thu 11:42:39 PM 40.5500 -93.5119 244° Southwest 408 470 34,000  Level Minneapolis Center
Thu 11:43:40 PM 40.5011 -93.6478 245° Southwest 414 476 34,000  Level Minneapolis Center
Thu 11:44:42 PM 40.4514 -93.7819 244° Southwest 412 474 34,000  Level Minneapolis Center
Thu 11:45:43 PM 40.4019 -93.9158 244° Southwest 412 474 34,000  Level Minneapolis Center
Thu 11:46:44 PM 40.3503 -94.0503 243° Southwest 413 475 34,000  Level Minneapolis Center
Thu 11:47:45 PM 40.3008 -94.1844 244° Southwest 414 476 34,000  Level Minneapolis Center
Thu 11:48:46 PM 40.2522 -94.3181 245° Southwest 412 474 34,000  Level Minneapolis Center
Thu 11:49:59 PM 40.1925 -94.4800 244° Southwest 415 478 34,000  Level Kansas City Center
Thu 11:50:48 PM 40.1503 -94.5919 244° Southwest 415 478 34,000  Level Minneapolis Center
Thu 11:51:50 PM 40.0886 -94.7556 244° Southwest 417 480 34,000  Level Minneapolis Center
Thu 11:52:51 PM 40.0394 -94.8850 244° Southwest 419 482 34,000  Level Minneapolis Center
Thu 11:53:52 PM 39.9839 -95.0283 243° Southwest 419 482 34,000  Level Minneapolis Center
Thu 11:54:53 PM 39.9325 -95.1667 244° Southwest 422 486 34,000  Level Minneapolis Center
Thu 11:55:54 PM 39.8783 -95.3028 243° Southwest 422 486 34,000  Level Minneapolis Center
Thu 11:56:56 PM 39.8264 -95.4411 244° Southwest 423 487 34,000  Level Minneapolis Center
Thu 11:57:57 PM 39.7725 -95.5764 243° Southwest 422 486 34,000  Level Minneapolis Center
Thu 11:59:10 PM 39.7100 -95.7364 243° Southwest 423 487 34,000  Level Kansas City Center
Fri 12:00:11 AM 39.6581 -95.8664 243° Southwest 425 489 34,000  Level Kansas City Center
Fri 12:01:10 AM 39.5983 -96.0178 243° Southwest 423 487 34,000  Level Kansas City Center
Fri 12:02:10 AM 39.5481 -96.1467 243° Southwest 422 486 34,000  Level Kansas City Center
Fri 12:03:15 AM 39.4969 -96.2717 242° Southwest 423 487 34,000  Level Kansas City Center
Fri 12:04:15 AM 39.4308 -96.4342 242° Southwest 425 489 34,000  Level Kansas City Center
Fri 12:05:16 AM 39.3817 -96.5592 243° Southwest 430 495 34,000  Level Kansas City Center
Fri 12:06:15 AM 39.3200 -96.7119 242° Southwest 431 496 34,000  Level Kansas City Center
Fri 12:07:18 AM 39.2672 -96.8425 242° Southwest 430 495 34,000  Level Kansas City Center
Fri 12:08:17 AM 39.2119 -96.9747 242° Southwest 435 501 34,000  Level Kansas City Center
Fri 12:09:21 AM 39.1483 -97.1300 242° Southwest 438 504 34,000  Level Kansas City Center
Fri 12:10:22 AM 39.0972 -97.2636 244° Southwest 437 503 34,000  Level Kansas City Center
Fri 12:11:23 AM 39.0331 -97.4194 242° Southwest 442 509 34,000  Level Kansas City Center
Fri 12:12:22 AM 38.9769 -97.5528 242° Southwest 444 511 34,000  Level Kansas City Center
Fri 12:13:23 AM 38.9214 -97.6872 242° Southwest 444 511 34,000  Level Kansas City Center
Fri 12:14:25 AM 38.8564 -97.8436 242° Southwest 445 512 34,000  Level Kansas City Center
Fri 12:15:26 AM 38.7939 -97.9881 241° Southwest 449 517 34,000  Level Kansas City Center
Fri 12:16:28 AM 38.7350 -98.1278 242° Southwest 449 517 34,000  Level Kansas City Center
Fri 12:17:27 AM 38.6753 -98.2672 241° Southwest 449 517 34,000  Level Kansas City Center
Fri 12:18:28 AM 38.6169 -98.4078 242° Southwest 450 518 34,000  Level Kansas City Center
Fri 12:19:31 AM 38.5556 -98.5481 241° Southwest 454 522 34,000  Level Kansas City Center
Fri 12:20:32 AM 38.4958 -98.6881 241° Southwest 453 521 34,000  Level Kansas City Center
Fri 12:21:34 AM 38.4361 -98.8286 242° Southwest 452 520 34,000  Level Kansas City Center
Fri 12:22:33 AM 38.3736 -98.9700 241° Southwest 458 527 34,000  Level Kansas City Center
Fri 12:23:35 AM 38.3122 -99.1108 241° Southwest 457 526 34,000  Level Kansas City Center
Fri 12:24:34 AM 38.2506 -99.2522 241° Southwest 458 527 34,000  Level Kansas City Center
Fri 12:25:38 AM 38.1750 -99.4228 241° Southwest 461 531 34,000  Level Kansas City Center
Fri 12:26:39 AM 38.1161 -99.5550 241° Southwest 464 534 34,000  Level Kansas City Center
Fri 12:27:40 AM 38.0453 -99.7158 241° Southwest 468 539 34,000  Level Kansas City Center
Fri 12:28:38 AM 37.9844 -99.8531 241° Southwest 467 537 34,000  Level Kansas City Center
Fri 12:29:42 AM 37.9222 -99.9900 240° Southwest 468 539 34,000  Level Kansas City Center
Fri 12:30:42 AM 37.8500 -100.1525 241° Southwest 472 543 34,000  Level Kansas City Center
Fri 12:31:43 AM 37.7861 -100.2897 240° Southwest 472 543 34,000  Level Kansas City Center
Fri 12:32:45 AM 37.7242 -100.4267 240° Southwest 470 541 34,000  Level Kansas City Center
Fri 12:33:46 AM 37.6522 -100.5850 240° Southwest 471 542 34,000  Level Kansas City Center
Fri 12:34:47 AM 37.5872 -100.7278 240° Southwest 471 542 34,000  Level Kansas City Center
Fri 12:35:48 AM 37.5208 -100.8706 240° Southwest 471 542 34,000  Level Kansas City Center
Fri 12:36:46 AM 37.4592 -101.0050 240° Southwest 470 541 34,000  Level Kansas City Center
Fri 12:37:49 AM 37.3850 -101.1639 240° Southwest 470 541 34,000  Level Kansas City Center
Fri 12:38:50 AM 37.3222 -101.2992 240° Southwest 468 539 34,000  Level Kansas City Center
Fri 12:39:51 AM 37.2581 -101.4339 239° Southwest 468 539 34,000  Level Kansas City Center
Fri 12:40:50 AM 37.1844 -101.5917 240° Southwest 470 541 34,000  Level Kansas City Center
Fri 12:41:59 AM 37.1103 -101.7489 239° Southwest 469 540 34,000  Level Albuquerque Center
Fri 12:43:00 AM 37.0456 -101.8836 239° Southwest 470 541 34,000  Level Albuquerque Center
Fri 12:44:00 AM 36.9700 -102.0417 239° Southwest 473 544 34,000  Level Albuquerque Center
Fri 12:45:01 AM 36.9044 -102.1792 239° Southwest 477 549 34,000  Level Albuquerque Center
Fri 12:46:02 AM 36.8364 -102.3186 239° Southwest 478 550 34,000  Level Albuquerque Center
Fri 12:47:03 AM 36.7694 -102.4619 240° Southwest 480 552 34,000  Level Albuquerque Center
Fri 12:48:04 AM 36.6958 -102.6153 239° Southwest 484 557 34,000  Level Albuquerque Center
Fri 12:49:05 AM 36.6244 -102.7633 239° Southwest 482 555 34,000  Level Albuquerque Center
Fri 12:50:06 AM 36.5528 -102.9053 238° Southwest 480 552 34,000  Level Albuquerque Center
Fri 12:51:07 AM 36.4842 -103.0500 240° Southwest 483 556 34,000  Level Albuquerque Center
Fri 12:52:07 AM 36.4150 -103.1900 238° Southwest 474 545 34,000  Level Albuquerque Center
Fri 12:53:08 AM 36.3456 -103.3297 238° Southwest 472 543 34,000  Level Albuquerque Center
Fri 12:54:09 AM 36.2753 -103.4706 238° Southwest 476 548 34,000  Level Albuquerque Center
Fri 12:55:10 AM 36.2039 -103.6103 238° Southwest 477 549 34,000  Level Albuquerque Center
Fri 12:56:11 AM 36.1344 -103.7517 239° Southwest 478 550 34,000  Level Albuquerque Center
Fri 12:57:12 AM 36.0622 -103.8881 237° Southwest 473 544 34,000  Level Albuquerque Center
Fri 12:58:12 AM 35.9922 -104.0264 238° Southwest 473 544 34,000  Level Albuquerque Center
Fri 12:59:13 AM 35.9219 -104.1653 238° Southwest 474 545 34,000  Level Albuquerque Center
Fri 01:00:14 AM 35.8522 -104.3022 238° Southwest 471 542 34,000  Level Albuquerque Center
Fri 01:01:15 AM 35.7814 -104.4383 237° Southwest 470 541 34,000  Level Albuquerque Center
Fri 01:02:16 AM 35.7117 -104.5756 238° Southwest 471 542 34,000  Level Albuquerque Center
Fri 01:03:16 AM 35.6408 -104.7111 237° Southwest 471 542 34,000  Level Albuquerque Center
Fri 01:04:17 AM 35.5700 -104.8478 238° Southwest 472 543 34,000  Level Albuquerque Center
Fri 01:05:18 AM 35.4981 -104.9861 237° Southwest 477 549 34,000  Level Albuquerque Center
Fri 01:06:19 AM 35.4278 -105.1233 238° Southwest 474 545 34,000  Level Albuquerque Center
Fri 01:07:20 AM 35.3433 -105.2817 237° Southwest 472 543 34,000  Level Albuquerque Center
Fri 01:08:21 AM 35.2719 -105.4161 237° Southwest 469 540 34,000  Level Albuquerque Center
Fri 01:09:21 AM 35.2036 -105.5458 237° Southwest 457 526 34,000  Level Albuquerque Center
Fri 01:11:00 AM 35.0973 -105.7388 236° Southwest  Level FlightAware Approximate
Fri 01:12:24 AM 35.0100 -105.9117 236° Southwest 442 509 34,000  Level Albuquerque Center
Fri 01:13:25 AM 34.9425 -106.0381 237° Southwest 444 511 34,000  Level Albuquerque Center
Fri 01:14:25 AM 34.8733 -106.1628 236° Southwest 443 510 34,000  Level Albuquerque Center
Fri 01:15:26 AM 34.8058 -106.2911 237° Southwest 446 513 34,000  Level Albuquerque Center
Fri 01:16:27 AM 34.7350 -106.4197 236° Southwest 452 520 34,000  Level Albuquerque Center
Fri 01:17:28 AM 34.6647 -106.5475 236° Southwest 452 520 34,000  Level Albuquerque Center
Fri 01:18:29 AM 34.5953 -106.6747 236° Southwest 450 518 34,000  Level Albuquerque Center
Fri 01:19:29 AM 34.5261 -106.8000 236° Southwest 445 512 34,000  Level Albuquerque Center
Fri 01:20:30 AM 34.4578 -106.9269 237° Southwest 448 516 34,000  Level Albuquerque Center
Fri 01:21:31 AM 34.3894 -107.0525 237° Southwest 447 514 34,000  Level Albuquerque Center
Fri 01:22:32 AM 34.3225 -107.1753 237° Southwest 438 504 34,000 -50 Level Albuquerque Center
Fri 01:23:32 AM 34.2511 -107.2981 235° Southwest 428 493 33,900  Descending Albuquerque Center
Fri 01:24:33 AM 34.1850 -107.4150 236° Southwest 423 487 34,000 49 Climbing Albuquerque Center
Fri 01:25:34 AM 34.1183 -107.5364 236° Southwest 431 496 34,000  Level Albuquerque Center
Fri 01:26:35 AM 34.0503 -107.6572 236° Southwest 435 501 34,000  Level Albuquerque Center
Fri 01:27:35 AM 33.9814 -107.7775 235° Southwest 437 503 34,000  Level Albuquerque Center
Fri 01:28:36 AM 33.8978 -107.9250 236° Southwest 444 511 34,000  Level Albuquerque Center
Fri 01:29:37 AM 33.8292 -108.0475 236° Southwest 444 511 34,000  Level Albuquerque Center
Fri 01:30:37 AM 33.7636 -108.1608 235° Southwest 442 509 34,000  Level Albuquerque Center
Fri 01:31:38 AM 33.6958 -108.2811 236° Southwest 440 506 34,000  Level Albuquerque Center
Fri 01:32:39 AM 33.6261 -108.4022 235° Southwest 444 511 34,000  Level Albuquerque Center
Fri 01:33:40 AM 33.5583 -108.5217 236° Southwest 440 506 34,000  Level Albuquerque Center
Fri 01:34:40 AM 33.4892 -108.6400 235° Southwest 439 505 34,000  Level Albuquerque Center
Fri 01:35:41 AM 33.4078 -108.7817 235° Southwest 436 502 34,000  Level Albuquerque Center
Fri 01:36:42 AM 33.3406 -108.8981 235° Southwest 434 499 34,000  Level Albuquerque Center
Fri 01:37:42 AM 33.2744 -109.0136 236° Southwest 431 496 34,000  Level Albuquerque Center
Fri 01:38:43 AM 33.2072 -109.1278 235° Southwest 431 496 34,000 -49 Level Albuquerque Center
Fri 01:39:44 AM 33.1400 -109.2408 235° Southwest 428 493 33,900 -744 Descending Albuquerque Center
Fri 01:40:44 AM 33.0708 -109.3578 235° Southwest 435 501 32,500 -1,686 Descending Albuquerque Center
Fri 01:41:45 AM 33.0033 -109.4722 235° Southwest 432 497 30,500 -2,231 Descending Albuquerque Center
Fri 01:42:45 AM 32.9392 -109.5833 235° Southwest 421 484 28,000 -2,579 Descending Albuquerque Center
Fri 01:43:46 AM 32.8625 -109.7119 235° Southwest 410 472 25,300 -2,410 Descending Albuquerque Center
Fri 01:44:47 AM 32.7989 -109.8164 234° Southwest 397 457 23,100 -2,182 Descending Albuquerque Center
Fri 01:45:47 AM 32.7339 -109.9239 234° Southwest 403 464 20,900 -2,231 Descending Albuquerque Center
Fri 01:46:48 AM 32.6742 -110.0242 235° Southwest 389 448 18,600 -2,262 Descending Albuquerque Center
Fri 01:47:49 AM 32.6194 -110.1183 235° Southwest 362 417 16,300 -1,983 Descending Albuquerque Center
Fri 01:48:46 AM 32.5583 -110.2136 233° Southwest 355 409 14,700 -1,379 Descending Albuquerque Center
Fri 01:49:16 AM 32.5283 -110.2675 237° Southwest 362 417 14,300 -563 Descending Albuquerque Center
Fri 01:49:50 AM 32.5039 -110.3097 236° Southwest 363 418 14,100 -590 Descending Albuquerque Center
Fri 01:50:17 AM 32.4786 -110.3625 240° Southwest 336 387 13,700 -1,082 Descending Albuquerque Center
Fri 01:50:51 AM 32.4658 -110.4122 253° West 314 361 13,000 -1,770 Descending Albuquerque Center
Fri 01:51:18 AM 32.4497 -110.4539 245° Southwest 302 348 11,900 -1,800 Descending Albuquerque Center
Fri 01:51:51 AM 32.4367 -110.5011 252° West 295 339 11,200 -900 Descending Albuquerque Center
Fri 01:52:18 AM 32.4208 -110.5453 247° West 301 346 11,000 -197 Descending Albuquerque Center
Fri 01:52:52 AM 32.4078 -110.5925 252° West 294 338 11,000  Level Albuquerque Center
Fri 01:53:19 AM 32.3897 -110.6372 244° Southwest 301 346 11,000  Level Albuquerque Center
Fri 01:53:52 AM 32.3778 -110.6839 253° West 295 339 11,000  Level Albuquerque Center
Fri 01:54:19 AM 32.3628 -110.7281 248° West 273 314 11,000  Level Albuquerque Center
Fri 01:54:53 AM 32.3533 -110.7694 255° West 291 335 11,000 -295 Level Albuquerque Center
Fri 01:55:20 AM 32.3403 -110.8100 249° West 272 313 10,700 -1,082 Descending Albuquerque Center
Fri 01:55:54 AM 32.3292 -110.8506 252° West 281 323 9,900 -1,672 Descending Albuquerque Center
Fri 01:56:21 AM 32.3117 -110.8933 244° Southwest 274 315 9,000 -1,400 Descending Albuquerque Center
Fri 01:56:54 AM 32.3031 -110.9342 256° West 274 315 8,500 -1,200 Descending Albuquerque Center
Fri 01:57:21 AM 32.2975 -110.9756 261° West 259 298 7,800 -1,180 Descending Albuquerque Center
Fri 01:57:55 AM 32.2919 -111.0172 261° West 267 307 7,300 -984 Descending Albuquerque Center
Fri 01:58:22 AM 32.2686 -111.0464 227° Southwest 245 282 6,800 -1,377 Descending Albuquerque Center
Fri 01:58:56 AM 32.2400 -111.0603 202° Southwest 256 295 5,900 -1,556 Descending Albuquerque Center
Fri 01:59:16 AM 32.2144 -111.0533 167° South 220 253 5,400 -1,200 Descending Albuquerque Center
Fri 01:59:56 AM 32.1944 -111.0314 137° Southeast 208 239 4,700 -1,180 Descending Albuquerque Center
Fri 02:00:17 AM 32.1814 -111.0169 137° Southeast 173 199 4,200 -885 Descending Albuquerque Center
Fri 02:00:57 AM 32.1611 -110.9897 131° Southeast 180 207 3,800 -885 Descending Albuquerque Center
Fri 02:01:18 AM 32.1483 -110.9781 142° Southeast 157 181 3,300 -1,429 Descending Albuquerque Center

Login

Don't have an account? Register now (free) for customized features, flight alerts, and more!